Ana Sayfa
METAR-TAF:

METAR-TAF

Havaalanları :

Berlin, New Hampshire, Amerika Birleşik Devletleri

Enlem: 44-34-34N, Boylam: 071-10-43W, yükseklik: 353 m

Güncel hava durumu gözlemi

Rapor saat 01:52 UTC de 47 dakika önce yapıldı.
Sakin rüzgar
Sıcaklık 1°C
Nem 80%
Basınç 1007 hPa
Görüş mesafesi: 16.1 km
2800 ft yükseklikte çok bulutlu

METAR: KBML 190152Z AUTO 00000KT 10SM OVC028 01/M02 A2973 RMK AO2 SLP084 T00111022

Saat: 21:39 (02:39 UTC)


TAF: eksik

4.000'den fazla havaalanı için hava durumu gözlemleri ve tahminleri (METAR ve TAF raporları).

Kullanılabilir istasyonlar harita üzerinde sarı ve kırmızı noktalarla gösterilir.

İstasyonun adını görmek için fareyi noktanın üzerinde gezdirin.

Sonrasında hava gözlem ve tahminlerini görmek için tıklayın.

Haritayı değiştirmek için: yaklaştırmak için siyah artı işaretli yeşil düğmeye ve uzaklaştırmak için de eksi işaretli düğmeye hızla tıklayın; bitişik haritalar için yeşil okları kullanın.


METAR-TAF: